Time;durP1;ratioP1;P1;durP2;ratioP2;P2;SDS_P1;SDS_P2;PMS_P1;PMS_P2;Temp;Humidity;BMP_temperature;BMP_pressure;BME280_temperature;BME280_humidity;BME280_pressure;Samples;Min_cycle;Max_cycle;Signal;HPM_P1;HPM_P2
2022/12/04 00:02:26;;;;;;;12.30;8.13;;;;;;;-141.28;100.00;51464.88;5071103;28;20457;-77
2022/12/04 00:04:53;;;;;;;12.77;7.47;;;;;;;-141.28;100.00;51468.81;5071683;28;20450;-75
2022/12/04 00:07:20;;;;;;;12.60;7.47;;;;;;;-141.28;100.00;51641.59;5058104;28;20492;-75
2022/12/04 00:09:47;;;;;;;13.03;8.00;;;;;;;-141.28;100.00;51407.94;5071756;28;20462;-75
2022/12/04 00:12:14;;;;;;;13.87;8.50;;;;;;;-141.28;100.00;51673.03;5071241;28;20512;-74
2022/12/04 00:14:42;;;;;;;10.90;7.43;;;;;;;-141.28;100.00;51688.72;5071187;28;20490;-76
2022/12/04 00:17:09;;;;;;;13.13;8.03;;;;;;;-141.28;100.00;51680.88;5039787;28;20455;-75
2022/12/04 00:19:36;;;;;;;12.93;8.40;;;;;;;-141.28;100.00;51673.03;5052894;28;20458;-76
2022/12/04 00:22:03;;;;;;;11.17;6.93;;;;;;;-141.28;100.00;51704.44;5076914;28;20486;-74
2022/12/04 00:24:31;;;;;;;11.63;6.80;;;;;;;-141.28;100.00;51747.63;5062444;28;20448;-74
2022/12/04 00:26:58;;;;;;;11.70;6.83;;;;;;;-141.28;100.00;51731.94;5065045;28;20453;-75
2022/12/04 00:29:25;;;;;;;10.53;7.37;;;;;;;-141.28;100.00;51321.56;5071908;28;20436;-74
2022/12/04 00:31:55;;;;;;;11.93;8.07;;;;;;;-141.28;100.00;51731.94;5075243;28;20439;-74
2022/12/04 00:34:22;;;;;;;11.60;6.83;;;;;;;-141.28;100.00;51696.59;5075049;28;20556;-76
2022/12/04 00:36:49;;;;;;;9.30;6.83;;;;;;;-141.28;100.00;51598.41;5075319;28;20443;-76
2022/12/04 00:39:17;;;;;;;11.50;7.57;;;;;;;-141.28;100.00;51704.44;5075485;28;20456;-75
2022/12/04 00:41:44;;;;;;;15.10;6.50;;;;;;;-141.28;100.00;51245.00;5063159;28;20562;-77
2022/12/04 00:44:11;;;;;;;10.87;6.83;;;;;;;-141.28;100.00;51696.59;5052513;28;20451;-77
2022/12/04 00:46:38;;;;;;;11.87;6.30;;;;;;;-141.28;100.00;51692.66;5052251;28;20446;-75
2022/12/04 00:49:06;;;;;;;8.87;5.47;;;;;;;-141.28;100.00;51645.53;5053575;28;20466;-79
2022/12/04 00:51:33;;;;;;;10.53;6.53;;;;;;;-141.28;100.00;51480.59;5064455;28;20460;-77
2022/12/04 00:54:01;;;;;;;9.27;5.30;;;;;;;-141.28;100.00;51676.94;5070934;28;20872;-76
2022/12/04 00:56:29;;;;;;;9.33;5.37;;;;;;;-141.28;100.00;51700.50;5071224;28;20988;-75
2022/12/04 00:58:58;;;;;;;8.47;5.27;;;;;;;-141.28;100.00;51716.22;5070744;28;21000;-75
2022/12/04 01:01:26;;;;;;;7.83;5.07;;;;;;;-141.28;100.00;51708.38;5057513;28;20447;-75
2022/12/04 01:03:55;;;;;;;8.07;4.77;;;;;;;-141.28;100.00;51728.00;5051549;28;20477;-74
2022/12/04 01:06:25;;;;;;;5.90;4.63;;;;;;;-141.28;100.00;51716.22;5050862;28;20517;-74
2022/12/04 01:08:54;;;;;;;9.73;5.90;;;;;;;-141.28;100.00;51735.84;5051136;28;20873;-75
2022/12/04 01:11:22;;;;;;;8.57;5.83;;;;;;;-141.28;100.00;51712.28;5052854;28;20513;-76
2022/12/04 01:13:49;;;;;;;8.83;5.00;;;;;;;-141.28;100.00;51735.84;5071319;28;20543;-74
2022/12/04 01:16:18;;;;;;;7.70;4.23;;;;;;;-141.28;100.00;51724.06;5070110;28;20454;-77
2022/12/04 01:18:46;;;;;;;9.63;5.60;;;;;;;-141.28;100.00;51749.59;5070641;28;20824;-76
2022/12/04 01:21:14;;;;;;;8.67;5.67;;;;;;;-141.28;100.00;51749.59;5069964;28;20455;-76
2022/12/04 01:23:42;;;;;;;7.23;4.90;;;;;;;-141.28;100.00;51728.00;5062131;28;20451;-75
2022/12/04 01:26:11;;;;;;;7.97;5.67;;;;;;;-141.28;100.00;51728.00;5052384;28;20443;-75
2022/12/04 01:28:38;;;;;;;8.50;5.47;;;;;;;-141.28;100.00;51743.72;5076640;28;20853;-75
2022/12/04 01:31:07;;;;;;;9.70;5.93;;;;;;;-141.28;100.00;51720.16;5080043;28;20457;-75
2022/12/04 01:33:36;;;;;;;19.13;11.07;;;;;;;-141.28;100.00;51684.81;5067566;28;20486;-76
2022/12/04 01:36:05;;;;;;;9.37;6.30;;;;;;;-141.28;100.00;51702.47;5055975;28;20973;-75
2022/12/04 01:38:33;;;;;;;8.87;5.90;;;;;;;-141.28;100.00;51706.41;5074570;28;20856;-75
2022/12/04 01:41:02;;;;;;;15.67;10.03;;;;;;;-141.28;100.00;51649.47;5074065;28;20453;-78
2022/12/04 01:43:31;;;;;;;17.10;10.00;;;;;;;-141.28;100.00;51716.22;5074336;28;20450;-76
2022/12/04 01:46:00;;;;;;;12.70;8.83;;;;;;;-141.28;100.00;51647.50;5073524;28;20504;-76
2022/12/04 01:48:31;;;;;;;10.83;4.87;;;;;;;-141.28;100.00;51665.16;5074407;28;20450;-74
2022/12/04 01:51:06;;;;;;;10.17;4.87;;;;;;;-141.28;100.00;51669.09;5074156;28;20442;-76
2022/12/04 01:53:38;;;;;;;5.87;4.40;;;;;;;-141.28;100.00;51625.91;5074519;28;20856;-76
2022/12/04 01:56:09;;;;;;;8.23;5.50;;;;;;;-141.28;100.00;51657.31;5068453;28;21039;-77
2022/12/04 01:58:40;;;;;;;5.27;3.13;;;;;;;-141.28;100.00;51578.78;5054552;28;20950;-75
2022/12/04 02:01:08;;;;;;;6.20;4.47;;;;;;;-141.28;100.00;51649.47;5049037;28;20826;-75
2022/12/04 02:03:35;;;;;;;5.57;4.10;;;;;;;-141.28;100.00;51657.31;5073945;28;20828;-77
2022/12/04 02:06:02;;;;;;;7.23;4.33;;;;;;;-141.28;100.00;51680.88;5074022;28;20554;-75
2022/12/04 02:08:30;;;;;;;5.90;4.13;;;;;;;-141.28;100.00;51692.66;5072464;28;20462;-74
2022/12/04 02:11:24;;;;;;;5.07;3.70;;;;;;;-141.28;100.00;51494.34;5061996;28;20454;-74
2022/12/04 02:14:02;;;;;;;6.00;4.57;;;;;;;-141.28;100.00;51529.69;5073288;28;21085;-74
2022/12/04 02:16:36;;;;;;;6.13;4.67;;;;;;;-141.28;100.00;51523.78;5073870;28;20453;-75
2022/12/04 02:19:17;;;;;;;7.17;4.87;;;;;;;-141.28;100.00;51492.38;5066253;28;20451;-76
2022/12/04 02:21:48;;;;;;;6.33;4.87;;;;;;;-141.28;100.00;51460.97;5053832;28;20580;-76
2022/12/04 02:24:28;;;;;;;6.07;3.87;;;;;;;-141.28;100.00;51500.22;5053918;28;20444;-75
2022/12/04 02:27:01;;;;;;;12.53;5.57;;;;;;;-141.28;100.00;51453.09;5042688;28;20513;-75
2022/12/04 02:29:38;;;;;;;8.50;5.20;;;;;;;-141.28;100.00;51470.78;5062702;28;20439;-73
2022/12/04 02:32:14;;;;;;;5.67;4.00;;;;;;;-141.28;100.00;51504.16;5060594;28;20459;-77
2022/12/04 02:34:47;;;;;;;6.10;4.50;;;;;;;-141.28;100.00;51478.63;5054820;28;20495;-75
2022/12/04 02:37:18;;;;;;;5.90;4.10;;;;;;;-141.28;100.00;51515.94;5054005;28;20562;-75
2022/12/04 02:39:52;;;;;;;5.77;3.83;;;;;;;-141.28;100.00;51476.66;5053622;28;20489;-77
2022/12/04 02:42:22;;;;;;;6.53;4.03;;;;;;;-141.28;100.00;51398.13;5053512;28;20447;-77
2022/12/04 02:44:56;;;;;;;6.80;4.77;;;;;;;-141.28;100.00;51531.66;5054078;28;20534;-78
2022/12/04 02:47:25;;;;;;;8.00;4.93;;;;;;;-141.28;100.00;51496.31;5056877;28;20860;-79
2022/12/04 02:49:57;;;;;;;6.83;4.10;;;;;;;-141.28;100.00;51574.84;5058592;28;20455;-78
2022/12/04 02:52:31;;;;;;;7.77;5.03;;;;;;;-141.28;100.00;51486.50;5057779;28;20444;-75
2022/12/04 02:55:02;;;;;;;6.03;4.27;;;;;;;-141.28;100.00;51547.34;5056340;28;20488;-76
2022/12/04 02:57:34;;;;;;;7.27;4.57;;;;;;;-141.28;100.00;51553.25;5053702;28;20444;-75
2022/12/04 03:00:07;;;;;;;7.30;4.57;;;;;;;-141.28;100.00;51190.03;5053328;28;20509;-74
2022/12/04 03:02:39;;;;;;;4.73;3.43;;;;;;;-141.28;100.00;51508.09;5054095;28;20448;-77
2022/12/04 03:05:11;;;;;;;8.30;3.90;;;;;;;-141.28;100.00;51453.09;5062564;28;20463;-78
2022/12/04 03:07:43;;;;;;;6.83;4.27;;;;;;;-141.28;100.00;51417.78;5073421;28;20443;-76
2022/12/04 03:10:14;;;;;;;5.13;3.47;;;;;;;-141.28;100.00;51378.50;5059359;28;20520;-79
2022/12/04 03:12:45;;;;;;;6.03;3.30;;;;;;;-141.28;100.00;51388.31;5072529;28;20450;-76
2022/12/04 03:15:21;;;;;;;4.70;3.47;;;;;;;-141.28;100.00;51331.38;5072914;28;20531;-75
2022/12/04 03:17:55;;;;;;;5.73;3.27;;;;;;;-141.28;100.00;51284.25;5072318;28;20487;-77
2022/12/04 03:20:24;;;;;;;4.00;2.87;;;;;;;-141.28;100.00;51296.03;5072765;28;20442;-78
2022/12/04 03:22:58;;;;;;;5.50;3.37;;;;;;;-141.28;100.00;51292.13;5053321;28;20475;-78
2022/12/04 03:25:31;;;;;;;7.93;4.67;;;;;;;-141.28;100.00;51299.97;5057046;28;20443;-76
2022/12/04 03:28:02;;;;;;;5.17;3.27;;;;;;;-141.28;100.00;51301.94;5072427;28;20443;-79
2022/12/04 03:30:37;;;;;;;6.37;3.77;;;;;;;-141.28;100.00;51299.97;5071388;28;20439;-78
2022/12/04 03:33:11;;;;;;;25.50;9.40;;;;;;;-141.28;100.00;51270.50;5071246;28;20948;-76
2022/12/04 03:35:46;;;;;;;11.00;5.03;;;;;;;-141.28;100.00;51264.63;5071857;28;20895;-76
2022/12/04 03:38:19;;;;;;;44.60;19.53;;;;;;;-141.28;100.00;51264.63;5071729;28;20470;-76
2022/12/04 03:40:56;;;;;;;32.00;13.67;;;;;;;-141.28;100.00;51258.72;5072540;28;20504;-74
2022/12/04 03:43:28;;;;;;;35.57;17.27;;;;;;;-141.28;100.00;51237.13;5071368;28;20453;-74
2022/12/04 03:46:01;;;;;;;29.77;15.23;;;;;;;-141.28;100.00;51264.63;5072433;28;20454;-75
2022/12/04 03:48:36;;;;;;;18.77;11.23;;;;;;;-141.28;100.00;51250.88;5046265;28;20446;-79
2022/12/04 03:51:14;;;;;;;13.63;7.63;;;;;;;-141.28;100.00;51217.50;5071791;28;20470;-75
2022/12/04 03:53:46;;;;;;;6.97;4.73;;;;;;;-141.28;100.00;51241.06;5072266;28;20446;-75
2022/12/04 03:56:18;;;;;;;5.83;3.43;;;;;;;-141.28;100.00;51231.25;5062140;28;20454;-75
2022/12/04 03:58:51;;;;;;;4.27;3.10;;;;;;;-141.28;100.00;51272.47;5072364;28;20485;-78
2022/12/04 04:01:25;;;;;;;4.73;3.13;;;;;;;-141.28;100.00;51233.22;5052881;28;21055;-77
2022/12/04 04:03:55;;;;;;;4.50;3.03;;;;;;;-141.28;100.00;51292.13;5052641;28;20456;-75
2022/12/04 04:06:25;;;;;;;5.40;3.27;;;;;;;-141.28;100.00;51335.31;5072258;28;20457;-75
2022/12/04 04:08:55;;;;;;;4.07;3.10;;;;;;;-141.28;100.00;51335.31;5071275;28;20561;-78
2022/12/04 04:11:27;;;;;;;5.93;3.87;;;;;;;-141.28;100.00;51370.66;5071809;28;20968;-75
2022/12/04 04:25:23;;;;;;;9.40;7.20;;;;;;;-141.28;100.00;51040.81;5042097;28;20439;-76
2022/12/04 04:27:51;;;;;;;9.50;6.03;;;;;;;-141.28;100.00;51138.97;5052790;28;21056;-77
2022/12/04 04:30:20;;;;;;;11.13;7.27;;;;;;;-141.28;100.00;51233.22;5052312;28;20505;-75
2022/12/04 04:32:58;;;;;;;10.10;7.00;;;;;;;-141.28;100.00;51241.06;5051681;28;20887;-76
2022/12/04 04:35:32;;;;;;;17.53;9.80;;;;;;;-141.28;100.00;51266.59;5058572;28;20502;-77
2022/12/04 04:38:08;;;;;;;17.93;11.57;;;;;;;-141.28;100.00;51262.66;5057103;28;20482;-76
2022/12/04 04:40:41;;;;;;;12.50;7.70;;;;;;;-141.28;100.00;51262.66;5051797;28;20452;-78
2022/12/04 04:43:15;;;;;;;13.40;9.10;;;;;;;-141.28;100.00;51303.88;5051936;28;20443;-76
2022/12/04 04:45:47;;;;;;;29.37;19.47;;;;;;;-141.28;100.00;51331.38;5052085;28;20439;-76
2022/12/04 04:48:20;;;;;;;17.27;11.50;;;;;;;-141.28;100.00;51323.53;5052079;28;20504;-75
2022/12/04 04:50:49;;;;;;;12.03;8.13;;;;;;;-141.28;100.00;51319.59;5052640;28;20485;-75
2022/12/04 04:53:20;;;;;;;13.30;7.40;;;;;;;-141.28;100.00;51378.50;5043165;28;20448;-75
2022/12/04 04:55:48;;;;;;;15.27;9.87;;;;;;;-141.28;100.00;51423.66;5058682;28;20846;-77
2022/12/04 04:58:17;;;;;;;18.13;10.27;;;;;;;-141.28;100.00;51445.25;5071910;28;20501;-75
2022/12/04 05:00:50;;;;;;;12.90;7.97;;;;;;;-141.28;100.00;51488.44;5071349;28;20520;-77
2022/12/04 05:03:19;;;;;;;12.20;7.03;;;;;;;-141.28;100.00;51480.59;5061037;28;20449;-75
2022/12/04 05:05:47;;;;;;;12.03;6.20;;;;;;;-141.28;100.00;51535.56;5056163;28;20485;-76
2022/12/04 05:08:14;;;;;;;6.97;3.87;;;;;;;-141.28;100.00;51590.56;5051388;28;20451;-77
2022/12/04 05:10:41;;;;;;;9.10;5.33;;;;;;;-141.28;100.00;51614.13;5052106;28;20444;-78
2022/12/04 05:13:08;;;;;;;10.50;6.80;;;;;;;-141.28;100.00;51627.84;5051544;28;20458;-78
2022/12/04 05:15:35;;;;;;;11.30;5.87;;;;;;;-141.28;100.00;51653.38;5065374;28;20483;-74
2022/12/04 05:18:02;;;;;;;12.67;7.67;;;;;;;-141.28;100.00;51661.25;5052058;28;20970;-77
2022/12/04 05:20:30;;;;;;;10.60;7.50;;;;;;;-141.28;100.00;51692.66;5051736;28;20944;-75
2022/12/04 05:22:57;;;;;;;12.00;6.90;;;;;;;-141.28;100.00;51686.75;5051800;28;21085;-75
2022/12/04 05:25:25;;;;;;;11.77;6.40;;;;;;;-141.28;100.00;51720.16;5052032;28;20443;-75
2022/12/04 05:27:52;;;;;;;10.93;6.60;;;;;;;-141.28;100.00;51700.50;5052516;28;20950;-76
2022/12/04 05:30:19;;;;;;;11.27;6.10;;;;;;;-141.28;100.00;51712.28;5052133;28;20451;-75
2022/12/04 05:32:46;;;;;;;10.83;6.67;;;;;;;-141.28;100.00;51704.44;5052731;28;20458;-74
2022/12/04 05:35:13;;;;;;;10.20;5.87;;;;;;;-141.28;100.00;51712.28;5053723;28;20544;-76
2022/12/04 05:37:41;;;;;;;7.30;5.10;;;;;;;-141.28;100.00;51712.28;5052195;28;20471;-74
2022/12/04 05:40:09;;;;;;;9.77;6.30;;;;;;;-141.28;100.00;51724.06;5052814;28;20954;-75
2022/12/04 05:42:36;;;;;;;12.07;6.30;;;;;;;-141.28;100.00;51751.56;5053345;28;20447;-75
2022/12/04 05:45:06;;;;;;;9.97;5.70;;;;;;;-141.28;100.00;51680.88;5053441;28;20505;-74
2022/12/04 05:47:39;;;;;;;8.47;5.17;;;;;;;-141.28;100.00;51676.94;5053621;28;20930;-78
2022/12/04 05:50:07;;;;;;;8.67;5.27;;;;;;;-141.28;100.00;51665.16;5041664;28;20569;-74
2022/12/04 05:52:34;;;;;;;10.60;5.90;;;;;;;-141.28;100.00;51376.53;5053074;28;20447;-74
2022/12/04 05:55:04;;;;;;;10.00;6.00;;;;;;;-141.28;100.00;51700.50;5054730;28;20483;-76
2022/12/04 05:57:31;;;;;;;10.80;6.00;;;;;;;-141.28;100.00;51712.28;5037958;28;20441;-74
2022/12/04 05:59:58;;;;;;;11.00;5.80;;;;;;;-141.28;100.00;51722.09;5051002;28;20451;-78
2022/12/04 06:02:25;;;;;;;11.77;7.90;;;;;;;-141.28;100.00;51775.13;5051269;28;20946;-79
2022/12/04 06:04:53;;;;;;;14.20;7.93;;;;;;;-141.28;100.00;51739.78;5051808;28;20456;-74
2022/12/04 06:07:21;;;;;;;14.13;8.87;;;;;;;-141.28;100.00;51771.19;5052240;28;20452;-75
2022/12/04 06:09:49;;;;;;;13.37;8.60;;;;;;;-141.28;100.00;51779.06;5051746;28;20447;-75
2022/12/04 06:12:17;;;;;;;11.00;6.67;;;;;;;-141.28;100.00;51767.28;5052451;28;20455;-75
2022/12/04 06:14:44;;;;;;;12.77;7.60;;;;;;;-141.28;100.00;51782.97;5054638;28;20482;-75
2022/12/04 06:17:11;;;;;;;8.70;5.90;;;;;;;-141.28;100.00;51678.91;5056521;28;20456;-77
2022/12/04 06:19:39;;;;;;;12.10;5.53;;;;;;;-141.28;100.00;51857.59;5074666;28;20450;-75
2022/12/04 06:22:06;;;;;;;10.57;5.87;;;;;;;-141.28;100.00;51347.09;5048175;28;20993;-77
2022/12/04 06:24:33;;;;;;;10.07;6.10;;;;;;;-141.28;100.00;51959.72;5059056;28;20819;-77
2022/12/04 06:27:00;;;;;;;7.73;5.33;;;;;;;-141.28;100.00;51924.38;5062513;28;20470;-76
2022/12/04 06:29:28;;;;;;;10.57;6.47;;;;;;;-141.28;100.00;51853.69;5070954;28;20542;-77
2022/12/04 06:31:56;;;;;;;8.37;4.63;;;;;;;-141.28;100.00;51885.09;5073881;28;20445;-77
2022/12/04 06:34:23;;;;;;;9.97;6.53;;;;;;;-141.28;100.00;51755.50;5067511;28;20462;-75
2022/12/04 06:36:50;;;;;;;11.63;6.60;;;;;;;-141.28;100.00;51892.94;5067017;28;20967;-77
2022/12/04 06:39:17;;;;;;;11.23;7.43;;;;;;;-141.28;100.00;51845.81;5054127;28;20510;-76
2022/12/04 06:41:44;;;;;;;11.67;7.27;;;;;;;-141.28;100.00;51861.53;5053658;28;20462;-79
2022/12/04 06:44:11;;;;;;;11.13;7.33;;;;;;;-141.28;100.00;51834.03;5041208;28;20524;-75
2022/12/04 06:46:40;;;;;;;11.83;7.07;;;;;;;-141.28;100.00;51810.47;5066858;28;20443;-76
2022/12/04 06:49:07;;;;;;;10.27;5.50;;;;;;;-141.28;100.00;51759.41;5073279;28;20451;-74
2022/12/04 06:51:38;;;;;;;6.63;4.00;;;;;;;-141.28;100.00;51759.41;5073861;28;20458;-77
2022/12/04 06:54:05;;;;;;;8.30;5.43;;;;;;;-141.28;100.00;51767.28;5066795;28;20539;-78
2022/12/04 06:56:33;;;;;;;9.80;6.30;;;;;;;-141.28;100.00;51759.41;5046663;28;20492;-78
2022/12/04 06:59:02;;;;;;;9.80;5.70;;;;;;;-141.28;100.00;51680.88;5046909;28;20525;-78
2022/12/04 07:01:31;;;;;;;11.90;7.33;;;;;;;-141.28;100.00;51763.34;5060735;28;20446;-74
2022/12/04 07:04:02;;;;;;;12.30;6.83;;;;;;;-141.28;100.00;51826.19;5060184;28;20560;-78
2022/12/04 07:06:32;;;;;;;11.97;5.97;;;;;;;-141.28;100.00;51704.44;5053804;28;20443;-77
2022/12/04 07:09:01;;;;;;;9.93;5.93;;;;;;;-141.28;100.00;51830.09;5068823;28;20458;-79
2022/12/04 07:11:29;;;;;;;20.20;11.60;;;;;;;-141.28;100.00;51853.69;5073406;28;20450;-77
2022/12/04 07:13:58;;;;;;;12.77;8.07;;;;;;;-141.28;100.00;52026.47;5072403;28;20587;-78
2022/12/04 07:16:26;;;;;;;11.37;6.30;;;;;;;-141.28;100.00;52191.44;5072750;28;20489;-78
2022/12/04 07:18:53;;;;;;;8.37;4.60;;;;;;;-141.28;100.00;52364.25;5072305;28;20442;-75
2022/12/04 07:21:24;;;;;;;7.90;5.00;;;;;;;-141.28;100.00;52275.88;5072291;28;20462;-76
2022/12/04 07:23:53;;;;;;;10.53;5.50;;;;;;;-141.28;100.00;51987.22;5067152;28;20858;-76
2022/12/04 07:26:21;;;;;;;9.67;6.03;;;;;;;-141.28;100.00;51731.94;5065324;28;20439;-75
2022/12/04 07:28:49;;;;;;;6.53;4.13;;;;;;;-141.28;100.00;51661.25;5058766;28;20434;-78
2022/12/04 07:31:18;;;;;;;8.90;4.73;;;;;;;-141.28;100.00;51653.38;5072311;28;20450;-76
2022/12/04 07:33:47;;;;;;;7.00;4.27;;;;;;;-141.28;100.00;51643.56;5071715;28;20470;-76
2022/12/04 07:36:15;;;;;;;8.37;5.20;;;;;;;-141.28;100.00;51488.44;5075953;28;20505;-77
2022/12/04 07:38:44;;;;;;;8.00;4.67;;;;;;;-141.28;100.00;51590.56;5069460;28;20471;-75
2022/12/04 07:41:12;;;;;;;6.87;4.20;;;;;;;-141.28;100.00;51484.53;5071359;28;20859;-74
2022/12/04 07:43:40;;;;;;;7.33;4.60;;;;;;;-141.28;100.00;51419.72;5078281;28;20482;-74
2022/12/04 07:46:10;;;;;;;4.87;3.00;;;;;;;-141.28;100.00;51280.34;5076239;28;20848;-74
2022/12/04 07:48:38;;;;;;;6.73;4.07;;;;;;;-141.28;100.00;51199.84;5075787;28;20451;-74
2022/12/04 07:51:06;;;;;;;9.30;5.00;;;;;;;-141.28;100.00;51146.81;5075659;28;20517;-75
2022/12/04 07:53:35;;;;;;;6.33;4.00;;;;;;;-141.28;100.00;51025.09;5072617;28;20450;-76
2022/12/04 07:56:04;;;;;;;6.93;4.53;;;;;;;-141.28;100.00;51076.16;5059489;28;20483;-75
2022/12/04 07:58:31;;;;;;;5.53;3.47;;;;;;;-141.28;100.00;51135.03;5052962;28;20486;-74
2022/12/04 08:01:05;;;;;;;5.30;3.50;;;;;;;-141.28;100.00;51172.34;5065446;28;20844;-75
2022/12/04 08:03:32;;;;;;;6.00;3.80;;;;;;;-141.28;100.00;51235.19;5065004;28;20450;-78
2022/12/04 08:06:00;;;;;;;6.63;3.90;;;;;;;-141.28;100.00;51080.06;5059064;28;20446;-75
2022/12/04 08:08:27;;;;;;;7.30;4.23;;;;;;;-141.28;100.00;51013.31;5071855;28;21045;-77
2022/12/04 08:10:54;;;;;;;5.43;3.87;;;;;;;-141.28;100.00;50923.03;5071130;28;20443;-76
2022/12/04 08:13:23;;;;;;;3.70;2.40;;;;;;;-141.28;100.00;50887.69;5072628;28;20465;-74
2022/12/04 08:15:50;;;;;;;3.53;2.80;;;;;;;-141.28;100.00;50765.97;5075961;28;20570;-74
2022/12/04 08:18:18;;;;;;;5.57;3.57;;;;;;;-141.28;100.00;50840.56;5074603;28;20439;-76
2022/12/04 08:20:47;;;;;;;7.80;3.50;;;;;;;-141.28;100.00;50799.34;5045664;28;20476;-76
2022/12/04 08:23:16;;;;;;;6.33;3.63;;;;;;;-141.28;100.00;50769.91;5067809;28;20466;-74
2022/12/04 08:25:44;;;;;;;6.10;4.40;;;;;;;-141.28;100.00;50699.22;5071595;28;20519;-75
2022/12/04 08:28:12;;;;;;;13.07;4.50;;;;;;;-141.28;100.00;50675.69;5075866;28;20949;-75
2022/12/04 08:30:41;;;;;;;9.87;4.30;;;;;;;-141.28;100.00;50699.22;5082987;28;20438;-75
2022/12/04 08:33:08;;;;;;;8.10;3.90;;;;;;;-141.28;100.00;50546.13;5082577;28;20477;-75
2022/12/04 08:35:35;;;;;;;7.33;3.90;;;;;;;-141.28;100.00;50687.47;5080632;28;20581;-74
2022/12/04 08:38:02;;;;;;;5.30;3.57;;;;;;;-141.28;100.00;50634.47;5081422;28;20482;-74
2022/12/04 08:40:29;;;;;;;8.53;4.17;;;;;;;-141.28;100.00;50687.47;5083038;28;20439;-76
2022/12/04 08:42:57;;;;;;;7.07;3.77;;;;;;;-141.28;100.00;50714.94;5078641;28;20957;-74
2022/12/04 08:45:25;;;;;;;6.17;3.77;;;;;;;-141.28;100.00;50703.16;5066329;28;20514;-76
2022/12/04 08:47:53;;;;;;;4.73;2.80;;;;;;;-141.28;100.00;50691.38;5040110;28;20459;-77
2022/12/04 08:50:20;;;;;;;6.33;4.23;;;;;;;-141.28;100.00;50565.75;5052145;28;20455;-75
2022/12/04 08:52:48;;;;;;;5.57;2.90;;;;;;;-141.28;100.00;50546.13;5052048;28;21033;-75
2022/12/04 08:55:18;;;;;;;6.53;3.83;;;;;;;-141.28;100.00;50471.53;5054474;28;20548;-78
2022/12/04 08:57:44;;;;;;;6.63;4.30;;;;;;;-141.28;100.00;50455.84;5051188;28;20455;-76
2022/12/04 09:00:14;;;;;;;7.53;4.40;;;;;;;-141.28;100.00;50412.66;5051574;28;20984;-75
2022/12/04 09:02:41;;;;;;;7.13;4.07;;;;;;;-141.28;100.00;50330.22;5055097;28;20536;-76
2022/12/04 09:05:10;;;;;;;6.60;3.63;;;;;;;-141.28;100.00;50035.81;5060776;28;20454;-75
2022/12/04 09:07:37;;;;;;;7.57;4.10;;;;;;;-141.28;100.00;50243.84;5051260;28;20501;-75
2022/12/04 09:10:05;;;;;;;7.10;4.20;;;;;;;-141.28;100.00;50267.41;5051599;28;20451;-76
2022/12/04 09:12:32;;;;;;;7.33;4.80;;;;;;;-141.28;100.00;50310.59;5051439;28;20972;-76
2022/12/04 09:15:01;;;;;;;5.27;3.37;;;;;;;-141.28;100.00;50314.50;5051781;28;20443;-78
2022/12/04 09:17:28;;;;;;;5.87;3.70;;;;;;;-141.28;100.00;50279.19;5052265;28;20447;-75
2022/12/04 09:19:54;;;;;;;6.73;4.37;;;;;;;-141.28;100.00;50212.44;5051911;28;20447;-76
2022/12/04 09:22:23;;;;;;;11.27;3.67;;;;;;;-141.28;100.00;50161.41;5050765;28;20613;-75
2022/12/04 09:24:49;;;;;;;11.33;3.53;;;;;;;-141.28;100.00;50137.88;5052434;28;20533;-75
2022/12/04 09:27:17;;;;;;;5.00;3.67;;;;;;;-141.28;100.00;50155.53;5053255;28;20451;-75
2022/12/04 09:29:45;;;;;;;6.77;3.77;;;;;;;-141.28;100.00;50145.72;5052610;28;20530;-75
2022/12/04 09:32:12;;;;;;;3.70;2.43;;;;;;;-141.28;100.00;50147.69;5051958;28;20513;-75
2022/12/04 09:34:38;;;;;;;5.77;2.97;;;;;;;-141.28;100.00;50184.97;5052210;28;20513;-78
2022/12/04 09:37:06;;;;;;;6.03;3.77;;;;;;;-141.28;100.00;50165.34;5051571;28;20490;-75
2022/12/04 09:39:34;;;;;;;7.67;4.07;;;;;;;-141.28;100.00;50173.19;5065504;28;20454;-75
2022/12/04 09:42:14;;;;;;;7.23;4.80;;;;;;;-141.28;100.00;50188.91;5058413;28;20542;-75
2022/12/04 09:44:46;;;;;;;3.97;2.83;;;;;;;-141.28;100.00;50224.22;5052758;28;20486;-77
2022/12/04 09:47:23;;;;;;;4.00;2.80;;;;;;;-141.28;100.00;50212.44;5068626;28;20839;-77
2022/12/04 09:49:56;;;;;;;5.40;2.87;;;;;;;-141.28;100.00;50194.78;5075180;28;20445;-75
2022/12/04 09:52:40;;;;;;;5.20;3.67;;;;;;;-141.28;100.00;50208.53;5074599;28;20845;-77
2022/12/04 09:55:20;;;;;;;6.20;3.87;;;;;;;-141.28;100.00;50239.94;5068637;28;20443;-78
2022/12/04 09:57:50;;;;;;;11.77;4.77;;;;;;;-141.28;100.00;50310.59;5067492;28;20475;-73
2022/12/04 10:00:19;;;;;;;6.30;4.20;;;;;;;-141.28;100.00;50385.16;5064862;28;20495;-78
2022/12/04 10:02:52;;;;;;;4.83;3.07;;;;;;;-141.28;100.00;50404.81;5069645;28;20455;-76
2022/12/04 10:05:24;;;;;;;6.97;4.27;;;;;;;-141.28;100.00;50373.38;5066947;28;20816;-77
2022/12/04 10:08:03;;;;;;;10.03;5.43;;;;;;;-141.28;100.00;50420.50;5074284;28;20458;-78
2022/12/04 10:10:41;;;;;;;7.37;4.83;;;;;;;-141.28;100.00;50404.81;5074693;28;20518;-78
2022/12/04 10:13:26;;;;;;;6.30;4.07;;;;;;;-141.28;100.00;50349.84;5074876;28;20868;-80
2022/12/04 10:16:07;;;;;;;4.73;3.20;;;;;;;-141.28;100.00;50332.19;5078697;28;20482;-76
2022/12/04 10:18:44;;;;;;;5.33;3.50;;;;;;;-141.28;100.00;50330.22;5076410;28;20476;-78
2022/12/04 10:21:32;;;;;;;10.77;5.87;;;;;;;-141.28;100.00;50349.84;5065165;28;20466;-80
2022/12/04 10:24:16;;;;;;;9.47;5.40;;;;;;;-141.28;100.00;50314.50;5059899;28;20895;-80
2022/12/04 10:27:14;;;;;;;7.53;5.20;;;;;;;-141.28;100.00;50263.47;5057107;28;20463;-81
2022/12/04 10:32:58;;;;;;;7.83;4.03;;;;;;;-141.28;100.00;50098.63;5068361;28;20470;-78
2022/12/04 10:35:32;;;;;;;6.73;3.97;;;;;;;-141.28;100.00;50110.38;5074438;28;20485;-77
2022/12/04 10:38:27;;;;;;;9.90;5.53;;;;;;;-141.28;100.00;50102.53;5057067;28;20931;-79
2022/12/04 10:43:50;;;;;;;8.30;4.93;;;;;;;-141.28;100.00;50122.16;5053829;28;20451;-79
2022/12/04 10:46:24;;;;;;;11.00;5.67;;;;;;;-141.28;100.00;50155.53;5072474;28;20876;-76
2022/12/04 10:48:57;;;;;;;8.97;5.57;;;;;;;-141.28;100.00;50267.41;5073248;28;20443;-77
2022/12/04 10:51:25;;;;;;;9.17;5.70;;;;;;;-141.28;100.00;50322.34;5061658;28;20442;-79
2022/12/04 10:53:52;;;;;;;7.83;4.97;;;;;;;-141.28;100.00;50318.44;5071590;28;20474;-77
2022/12/04 10:56:25;;;;;;;6.70;4.47;;;;;;;-141.28;100.00;50308.63;5059955;28;20539;-80
2022/12/04 10:58:57;;;;;;;3.33;2.53;;;;;;;-141.28;100.00;50275.25;5060671;28;20448;-77
2022/12/04 11:01:43;;;;;;;8.57;4.13;;;;;;;-141.28;100.00;50212.44;5054032;28;20460;-76
2022/12/04 11:04:21;;;;;;;6.80;3.47;;;;;;;-141.28;100.00;50157.50;5053558;28;20966;-80
2022/12/04 11:06:50;;;;;;;14.10;6.60;;;;;;;-141.28;100.00;50220.28;5053376;28;20989;-80
2022/12/04 11:09:22;;;;;;;4.03;2.83;;;;;;;-141.28;100.00;49943.56;5054158;28;20455;-77
2022/12/04 11:11:51;;;;;;;5.07;3.67;;;;;;;-141.28;100.00;50228.16;5053937;28;21017;-75
2022/12/04 11:14:20;;;;;;;4.67;2.93;;;;;;;-141.28;100.00;50247.78;5053975;28;20471;-78
2022/12/04 11:17:01;;;;;;;5.80;3.50;;;;;;;-141.28;100.00;50224.22;5066170;28;20848;-77
2022/12/04 11:19:30;;;;;;;6.17;3.57;;;;;;;-141.28;100.00;50243.84;5050406;28;20458;-77
2022/12/04 11:22:04;;;;;;;6.43;4.50;;;;;;;-141.28;100.00;50210.47;5072526;28;20478;-74
2022/12/04 11:24:34;;;;;;;6.10;3.47;;;;;;;-141.28;100.00;50192.81;5072510;28;20459;-79
2022/12/04 11:27:05;;;;;;;5.60;2.53;;;;;;;-141.28;100.00;50173.19;5071660;28;20466;-77
2022/12/04 11:29:36;;;;;;;3.60;2.43;;;;;;;-141.28;100.00;50086.84;5072386;28;20516;-76
2022/12/04 11:32:07;;;;;;;7.60;3.87;;;;;;;-141.28;100.00;50122.16;5072569;28;20458;-77
2022/12/04 11:34:38;;;;;;;4.00;2.60;;;;;;;-141.28;100.00;50133.94;5072412;28;20503;-75
2022/12/04 11:37:15;;;;;;;5.97;3.90;;;;;;;-141.28;100.00;50118.25;5077037;28;20527;-76
2022/12/04 11:39:45;;;;;;;6.53;4.30;;;;;;;-141.28;100.00;50102.53;5073093;28;20450;-75